Time;durP1;ratioP1;P1;durP2;ratioP2;P2;SDS_P1;SDS_P2;PMS_P1;PMS_P2;Temp;Humidity;BMP_temperature;BMP_pressure;BME280_temperature;BME280_humidity;BME280_pressure;Samples;Min_cycle;Max_cycle;Signal;HPM_P1;HPM_P2
2021/12/28 00:02:23;;;;;;;11.70;8.07;;;4.40;99.90;;;;;;5061396;28;20052;-89
2021/12/28 00:04:49;;;;;;;12.30;8.80;;;4.40;99.90;;;;;;5042526;28;20391;-90
2021/12/28 00:07:15;;;;;;;11.70;8.38;;;4.50;99.90;;;;;;5062395;28;20045;-90
2021/12/28 00:09:40;;;;;;;14.88;9.25;;;4.80;99.90;;;;;;5042781;28;20048;-89
2021/12/28 00:12:07;;;;;;;10.67;7.70;;;4.50;99.90;;;;;;5042627;28;20521;-90
2021/12/28 00:14:36;;;;;;;13.60;9.05;;;4.40;99.90;;;;;;5044517;28;20052;-90
2021/12/28 00:19:48;;;;;;;12.07;7.85;;;4.50;99.90;;;;;;5078501;28;20041;-89
2021/12/28 00:22:14;;;;;;;12.63;9.07;;;4.50;99.90;;;;;;5093618;28;20059;-89
2021/12/28 00:24:41;;;;;;;11.88;10.02;;;4.50;99.90;;;;;;5059132;28;20121;-90
2021/12/28 00:27:07;;;;;;;11.95;8.88;;;4.50;99.90;;;;;;5080229;28;20072;-90
2021/12/28 00:29:33;;;;;;;18.17;9.43;;;4.50;99.90;;;;;;5060262;28;20142;-90
2021/12/28 00:31:59;;;;;;;13.55;9.30;;;5.10;99.90;;;;;;5062239;28;20041;-91
2021/12/28 00:34:24;;;;;;;15.40;9.17;;;4.50;99.90;;;;;;5058607;28;20044;-90
2021/12/28 00:36:50;;;;;;;15.70;11.13;;;4.50;99.90;;;;;;5061298;28;20127;-90
2021/12/28 00:39:16;;;;;;;16.47;9.73;;;4.50;99.90;;;;;;5026200;28;20375;-90
2021/12/28 00:41:41;;;;;;;16.00;9.77;;;4.50;99.90;;;;;;5057406;28;20037;-90
2021/12/28 00:44:08;;;;;;;15.37;11.07;;;4.50;99.90;;;;;;5058722;28;20470;-90
2021/12/28 00:46:34;;;;;;;17.60;11.37;;;4.50;99.90;;;;;;5060855;28;20513;-90
2021/12/28 00:48:59;;;;;;;12.97;10.27;;;4.50;99.90;;;;;;5079479;28;20389;-90
2021/12/28 00:51:25;;;;;;;16.60;10.87;;;4.50;99.90;;;;;;5060500;28;20507;-89
2021/12/28 00:53:51;;;;;;;15.40;11.25;;;4.50;99.90;;;;;;5041420;28;20041;-90
2021/12/28 00:56:17;;;;;;;16.42;11.77;;;4.50;99.90;;;;;;5085907;28;20041;-90
2021/12/28 00:58:42;;;;;;;14.20;11.85;;;4.60;99.90;;;;;;5074828;28;20489;-90
2021/12/28 01:01:09;;;;;;;18.63;13.03;;;4.60;99.90;;;;;;5057960;28;20041;-90
2021/12/28 01:03:37;;;;;;;19.02;11.98;;;4.60;99.90;;;;;;5078222;28;20067;-90
2021/12/28 01:06:07;;;;;;;17.15;12.15;;;4.60;99.90;;;;;;5059349;28;20045;-90
2021/12/28 01:08:33;;;;;;;21.27;11.60;;;4.60;99.90;;;;;;5074644;28;20053;-90
2021/12/28 01:10:59;;;;;;;14.73;12.43;;;4.60;99.90;;;;;;5060360;28;20051;-90
2021/12/28 01:13:26;;;;;;;19.92;13.90;;;5.10;99.90;;;;;;5058877;28;20044;-90
2021/12/28 01:15:53;;;;;;;20.23;13.25;;;4.60;99.90;;;;;;5056812;28;20075;-90
2021/12/28 01:18:20;;;;;;;;;;;4.60;99.90;;;;;;5072599;28;20098;-91
2021/12/28 01:20:46;;;;;;;17.20;12.18;;;4.60;99.90;;;;;;5059610;28;19927;-90
2021/12/28 01:23:12;;;;;;;18.33;12.67;;;4.60;99.90;;;;;;5057575;28;20486;-89
2021/12/28 01:25:40;;;;;;;18.83;13.57;;;4.60;99.90;;;;;;5058888;28;20287;-90
2021/12/28 01:28:08;;;;;;;22.88;13.50;;;4.60;99.90;;;;;;5059145;28;20682;-90
2021/12/28 01:30:34;;;;;;;24.83;14.63;;;4.60;99.90;;;;;;5060628;28;20051;-89
2021/12/28 01:33:01;;;;;;;22.80;15.43;;;5.30;99.90;;;;;;5058502;28;20095;-90
2021/12/28 01:35:27;;;;;;;;;;;4.60;99.90;;;;;;5060147;28;20075;-90
2021/12/28 01:37:53;;;;;;;19.05;14.23;;;4.70;99.90;;;;;;5040230;28;19947;-90
2021/12/28 01:40:24;;;;;;;20.50;14.47;;;4.70;99.90;;;;;;5061065;28;20463;-90
2021/12/28 01:42:58;;;;;;;23.60;14.13;;;4.70;99.90;;;;;;5056928;28;20552;-90
2021/12/28 01:45:51;;;;;;;25.38;16.52;;;4.70;99.90;;;;;;5054912;28;20049;-90
2021/12/28 01:48:26;;;;;;;20.33;14.63;;;4.80;99.90;;;;;;5048436;28;20115;-90
2021/12/28 01:50:55;;;;;;;25.85;16.92;;;4.80;99.90;;;;;;5065489;28;20391;-89
2021/12/28 01:53:21;;;;;;;24.90;16.08;;;4.90;99.90;;;;;;5047541;28;20183;-90
2021/12/28 01:55:50;;;;;;;28.38;17.65;;;4.90;99.90;;;;;;5048973;28;20377;-90
2021/12/28 01:58:17;;;;;;;24.13;16.77;;;4.90;99.90;;;;;;5065706;28;20080;-90
2021/12/28 02:00:45;;;;;;;25.77;15.52;;;4.90;99.90;;;;;;5065052;28;20507;-90
2021/12/28 02:03:14;;;;;;;30.13;17.88;;;5.00;99.90;;;;;;5047146;28;20391;-90
2021/12/28 02:05:40;;;;;;;42.40;20.55;;;5.60;99.90;;;;;;5031716;28;20139;-90
2021/12/28 02:08:09;;;;;;;38.60;19.30;;;5.00;99.90;;;;;;5048705;28;20081;-90
2021/12/28 02:10:36;;;;;;;35.05;20.73;;;5.00;99.90;;;;;;5046777;28;20045;-90
2021/12/28 02:13:04;;;;;;;31.00;18.60;;;5.20;99.90;;;;;;5068801;28;20068;-90
2021/12/28 02:15:30;;;;;;;38.60;20.75;;;5.00;99.90;;;;;;5052854;28;20059;-90
2021/12/28 02:17:55;;;;;;;61.07;21.90;;;5.00;99.90;;;;;;5068427;28;20029;-90
2021/12/28 02:20:22;;;;;;;69.60;22.97;;;5.00;99.90;;;;;;5052614;28;20067;-90
2021/12/28 02:22:48;;;;;;;127.05;32.00;;;5.00;99.90;;;;;;5053402;28;20415;-90
2021/12/28 02:25:17;;;;;;;92.82;28.67;;;5.00;99.90;;;;;;5069493;28;20080;-90
2021/12/28 02:27:43;;;;;;;55.78;22.75;;;4.90;99.90;;;;;;5051935;28;20110;-90
2021/12/28 02:30:14;;;;;;;98.63;34.17;;;5.00;99.90;;;;;;5052578;28;20495;-89
2021/12/28 02:32:40;;;;;;;72.78;28.13;;;5.00;99.90;;;;;;5052149;28;20074;-90
2021/12/28 02:35:08;;;;;;;65.18;22.45;;;5.00;99.90;;;;;;5035951;28;20085;-90
2021/12/28 02:37:34;;;;;;;189.07;46.92;;;4.90;99.90;;;;;;5053106;28;20071;-89
2021/12/28 02:40:00;;;;;;;98.57;26.50;;;5.00;99.90;;;;;;5066472;28;20025;-90
2021/12/28 02:42:26;;;;;;;124.18;34.83;;;4.90;99.90;;;;;;5069035;28;20049;-90
2021/12/28 02:45:02;;;;;;;244.40;53.60;;;4.90;99.90;;;;;;5053653;28;20044;-89
2021/12/28 02:47:28;;;;;;;82.10;27.55;;;5.30;99.90;;;;;;5062495;28;20045;-90
2021/12/28 02:49:54;;;;;;;78.97;28.13;;;5.30;99.90;;;;;;5062712;28;20049;-90
2021/12/28 02:52:20;;;;;;;90.43;33.43;;;4.90;99.90;;;;;;5078665;28;20036;-90
2021/12/28 02:54:46;;;;;;;140.60;31.60;;;4.90;99.90;;;;;;5059037;28;20048;-89
2021/12/28 02:57:11;;;;;;;81.67;26.07;;;4.80;99.90;;;;;;5064451;28;20044;-90
2021/12/28 02:59:45;;;;;;;54.90;24.70;;;5.30;99.90;;;;;;5078960;28;20105;-90
2021/12/28 03:02:11;;;;;;;46.17;22.73;;;4.90;99.90;;;;;;5059903;28;20041;-90
2021/12/28 03:04:37;;;;;;;41.83;23.60;;;4.90;99.90;;;;;;5063416;28;21599;-90
2021/12/28 03:07:03;;;;;;;41.50;21.50;;;4.90;99.90;;;;;;5060205;28;20112;-90
2021/12/28 03:09:28;;;;;;;51.60;27.20;;;4.90;99.90;;;;;;5063664;28;20049;-90
2021/12/28 03:11:54;;;;;;;51.17;23.70;;;5.00;99.90;;;;;;5059467;28;20146;-89
2021/12/28 03:14:20;;;;;;;43.97;25.17;;;5.00;99.90;;;;;;5061378;28;20055;-89
2021/12/28 03:16:45;;;;;;;62.00;25.63;;;5.10;99.90;;;;;;5062050;28;20040;-89
2021/12/28 03:19:11;;;;;;;37.58;21.45;;;5.10;99.90;;;;;;5061979;28;20036;-89
2021/12/28 03:21:38;;;;;;;42.50;23.27;;;5.20;99.90;;;;;;5092605;28;20491;-89
2021/12/28 03:24:05;;;;;;;37.92;20.90;;;5.20;99.90;;;;;;5076065;28;20112;-89
2021/12/28 03:26:31;;;;;;;32.60;22.25;;;5.30;99.90;;;;;;5065831;28;20041;-89
2021/12/28 03:28:56;;;;;;;51.20;23.73;;;5.30;99.90;;;;;;5059630;28;20106;-89
2021/12/28 03:31:23;;;;;;;39.67;23.93;;;5.50;99.90;;;;;;5059408;28;20391;-89
2021/12/28 03:33:51;;;;;;;45.33;24.57;;;5.40;99.90;;;;;;5043649;28;20053;-89
2021/12/28 03:36:18;;;;;;;51.83;24.35;;;5.50;99.90;;;;;;5075743;28;20283;-90
2021/12/28 03:38:45;;;;;;;43.47;23.75;;;5.40;99.90;;;;;;5043806;28;20158;-90
2021/12/28 03:41:12;;;;;;;42.42;23.10;;;5.40;99.90;;;;;;5075038;28;20051;-89
2021/12/28 03:43:40;;;;;;;39.13;23.08;;;5.50;99.90;;;;;;5046003;28;20086;-89
2021/12/28 03:46:07;;;;;;;36.28;23.23;;;5.50;99.90;;;;;;5075956;28;20052;-89
2021/12/28 03:48:34;;;;;;;38.22;21.52;;;5.50;99.90;;;;;;5079753;28;20057;-89
2021/12/28 03:51:00;;;;;;;;;;;5.50;99.90;;;;;;5060411;28;20099;-89
2021/12/28 03:53:26;;;;;;;36.35;19.92;;;5.60;99.90;;;;;;5061802;28;19924;-90
2021/12/28 03:55:51;;;;;;;38.27;21.30;;;5.60;99.90;;;;;;5058739;28;20407;-89
2021/12/28 03:58:17;;;;;;;34.93;20.63;;;5.60;99.90;;;;;;5078390;28;20036;-89
2021/12/28 04:00:45;;;;;;;32.27;21.70;;;5.70;99.90;;;;;;5061998;28;20044;-89
2021/12/28 04:03:12;;;;;;;36.28;21.90;;;6.10;99.90;;;;;;5093221;28;20131;-89
2021/12/28 04:05:38;;;;;;;;;;;5.70;99.90;;;;;;5079436;28;20045;-89
2021/12/28 04:08:05;;;;;;;45.55;21.80;;;5.90;99.90;;;;;;5094394;28;20294;-89
2021/12/28 04:10:37;;;;;;;39.50;21.42;;;5.70;99.90;;;;;;5060632;28;20052;-89
2021/12/28 04:13:03;;;;;;;37.42;21.88;;;5.70;99.90;;;;;;5074394;28;20040;-89
2021/12/28 04:15:29;;;;;;;41.10;22.03;;;5.70;99.90;;;;;;5060219;28;20044;-89
2021/12/28 04:17:55;;;;;;;39.37;21.33;;;5.80;99.90;;;;;;5077278;28;20047;-89
2021/12/28 04:20:22;;;;;;;44.53;20.97;;;5.70;99.90;;;;;;5058341;28;20068;-89
2021/12/28 04:22:49;;;;;;;33.28;20.92;;;5.70;99.90;;;;;;5090191;28;20048;-89
2021/12/28 04:25:17;;;;;;;45.03;22.42;;;5.70;99.90;;;;;;5060951;28;20056;-89
2021/12/28 04:27:43;;;;;;;54.42;24.67;;;5.60;99.90;;;;;;5059690;28;20090;-89
2021/12/28 04:30:11;;;;;;;54.30;24.38;;;5.70;99.90;;;;;;5057373;28;20087;-89
2021/12/28 04:32:38;;;;;;;83.25;32.08;;;5.50;99.90;;;;;;5089401;28;20045;-90
2021/12/28 04:35:05;;;;;;;175.00;45.65;;;5.40;99.90;;;;;;5075536;28;20041;-90
2021/12/28 04:37:31;;;;;;;;;;;5.30;99.90;;;;;;5060114;28;20044;-89
2021/12/28 04:39:56;;;;;;;123.47;35.03;;;5.30;99.90;;;;;;5060376;28;19931;-89
2021/12/28 04:42:24;;;;;;;80.55;26.98;;;6.20;99.90;;;;;;5061822;28;20033;-89
2021/12/28 04:44:50;;;;;;;51.53;25.10;;;5.30;99.90;;;;;;5060969;28;20088;-89
2021/12/28 04:47:16;;;;;;;33.70;20.23;;;5.20;99.90;;;;;;5044110;28;20821;-89
2021/12/28 04:49:44;;;;;;;34.27;19.20;;;5.70;99.90;;;;;;5060575;28;20733;-89
2021/12/28 04:52:09;;;;;;;41.15;20.52;;;5.10;99.90;;;;;;5055991;28;20290;-89
2021/12/28 04:54:37;;;;;;;32.10;20.03;;;5.20;99.90;;;;;;5061417;28;20494;-89
2021/12/28 04:57:06;;;;;;;34.22;19.02;;;5.10;99.90;;;;;;5063542;28;20055;-89
2021/12/28 04:59:32;;;;;;;34.08;19.95;;;5.10;99.90;;;;;;5046102;28;20053;-89
2021/12/28 05:01:58;;;;;;;33.65;18.90;;;5.10;99.90;;;;;;5059271;28;20051;-89
2021/12/28 05:04:24;;;;;;;29.73;16.80;;;5.10;99.90;;;;;;5070740;28;20032;-89
2021/12/28 05:06:53;;;;;;;31.23;20.13;;;5.10;99.90;;;;;;5061768;28;20040;-89
2021/12/28 05:09:19;;;;;;;35.85;17.63;;;5.10;99.90;;;;;;5059656;28;20055;-89
2021/12/28 05:11:45;;;;;;;27.23;16.57;;;5.10;99.90;;;;;;5103211;28;20052;-89
2021/12/28 05:14:11;;;;;;;25.88;16.45;;;5.10;99.90;;;;;;5076501;28;20040;-89
2021/12/28 05:16:37;;;;;;;27.42;16.58;;;5.10;99.90;;;;;;5070781;28;20510;-89
2021/12/28 05:19:06;;;;;;;31.47;16.07;;;5.20;99.90;;;;;;5061232;28;20076;-89
2021/12/28 05:21:32;;;;;;;31.15;16.67;;;5.20;99.90;;;;;;5068081;28;20044;-89
2021/12/28 05:23:58;;;;;;;37.77;18.60;;;5.30;99.90;;;;;;5062187;28;20067;-89
2021/12/28 05:26:24;;;;;;;24.40;17.20;;;5.20;99.90;;;;;;5060068;28;20048;-89
2021/12/28 05:28:50;;;;;;;27.55;16.05;;;5.90;99.90;;;;;;5080012;28;20326;-89
2021/12/28 05:31:16;;;;;;;26.50;16.55;;;5.20;99.90;;;;;;5069571;28;20048;-89
2021/12/28 05:33:42;;;;;;;24.37;16.07;;;5.20;99.90;;;;;;5027931;28;20040;-89
2021/12/28 05:36:08;;;;;;;31.47;17.77;;;5.20;99.90;;;;;;5058294;28;20040;-89
2021/12/28 05:38:35;;;;;;;23.75;15.57;;;5.20;99.90;;;;;;5079668;28;20036;-89
2021/12/28 05:41:01;;;;;;;27.02;16.13;;;5.50;99.90;;;;;;5061157;28;20496;-89
2021/12/28 05:43:26;;;;;;;33.20;17.07;;;5.30;99.90;;;;;;5074491;28;20139;-89
2021/12/28 05:45:52;;;;;;;25.93;15.97;;;5.30;99.90;;;;;;5043662;28;20114;-89
2021/12/28 05:48:18;;;;;;;27.27;16.63;;;5.20;99.90;;;;;;5045195;28;20052;-89
2021/12/28 05:50:44;;;;;;;29.00;15.13;;;5.20;99.90;;;;;;5063523;28;20479;-89
2021/12/28 05:53:09;;;;;;;27.53;16.23;;;5.20;99.90;;;;;;5064560;28;20101;-89
2021/12/28 05:55:38;;;;;;;22.80;15.67;;;5.70;99.90;;;;;;5049518;28;20048;-89
2021/12/28 05:58:03;;;;;;;26.30;15.07;;;5.60;99.90;;;;;;5080402;28;20041;-89
2021/12/28 06:00:29;;;;;;;23.47;13.50;;;5.30;99.90;;;;;;5065459;28;20422;-89
2021/12/28 06:02:56;;;;;;;23.65;13.65;;;5.50;99.90;;;;;;5048559;28;20045;-89
2021/12/28 06:05:22;;;;;;;;;;;5.30;99.90;;;;;;5081938;28;20059;-89
2021/12/28 06:07:48;;;;;;;24.58;13.32;;;5.20;99.90;;;;;;5064857;28;19924;-89
2021/12/28 06:10:14;;;;;;;24.63;12.27;;;5.20;99.90;;;;;;5064144;28;20068;-90
2021/12/28 06:12:40;;;;;;;21.73;12.47;;;5.20;99.90;;;;;;5064314;28;20490;-89
2021/12/28 06:15:07;;;;;;;16.75;12.68;;;5.10;99.90;;;;;;5064681;28;20475;-90
2021/12/28 06:17:33;;;;;;;18.73;12.57;;;5.10;99.90;;;;;;5065548;28;20044;-89
2021/12/28 06:19:59;;;;;;;22.48;12.85;;;5.10;99.90;;;;;;5064114;28;20036;-89
2021/12/28 06:22:25;;;;;;;18.83;10.50;;;5.40;99.90;;;;;;5078590;28;20045;-89
2021/12/28 06:24:51;;;;;;;22.47;12.23;;;5.10;99.90;;;;;;5074224;28;20166;-90
2021/12/28 06:27:18;;;;;;;18.20;11.50;;;5.50;99.90;;;;;;5062191;28;20337;-89
2021/12/28 06:29:44;;;;;;;17.13;11.23;;;5.00;99.90;;;;;;5074046;28;20487;-90
2021/12/28 06:32:10;;;;;;;22.00;12.27;;;5.00;99.90;;;;;;5066502;28;20040;-90
2021/12/28 06:34:36;;;;;;;16.20;11.35;;;5.60;99.90;;;;;;5075987;28;20048;-90
2021/12/28 06:37:02;;;;;;;25.13;11.37;;;5.50;99.90;;;;;;5065166;28;20044;-89
2021/12/28 06:39:28;;;;;;;16.60;11.65;;;5.10;99.90;;;;;;5046425;28;20043;-90
2021/12/28 06:41:53;;;;;;;26.23;13.00;;;5.10;99.90;;;;;;5065134;28;20044;-89
2021/12/28 06:44:22;;;;;;;19.27;12.30;;;5.10;99.90;;;;;;5063128;28;20051;-89
2021/12/28 06:46:49;;;;;;;19.83;12.43;;;5.10;99.90;;;;;;5045779;28;20063;-90
2021/12/28 06:49:15;;;;;;;;;;;5.10;99.90;;;;;;5062381;28;20086;-90
2021/12/28 06:51:41;;;;;;;19.45;11.57;;;5.10;99.90;;;;;;5064985;28;19955;-90
2021/12/28 06:54:06;;;;;;;21.67;11.90;;;5.10;99.90;;;;;;5063670;28;20047;-89
2021/12/28 06:56:33;;;;;;;20.50;10.17;;;5.10;99.90;;;;;;5079832;28;20510;-90
2021/12/28 06:58:58;;;;;;;19.88;11.70;;;5.60;99.90;;;;;;5063153;28;20116;-89
2021/12/28 07:01:24;;;;;;;20.53;11.73;;;5.20;99.90;;;;;;5062412;28;20051;-90
2021/12/28 07:03:51;;;;;;;23.77;10.63;;;5.20;99.90;;;;;;5063628;28;20046;-89
2021/12/28 07:06:20;;;;;;;18.13;9.85;;;5.30;99.90;;;;;;5062481;28;20568;-89
2021/12/28 07:08:46;;;;;;;15.93;10.60;;;5.20;99.90;;;;;;5104049;28;20067;-89
2021/12/28 07:11:11;;;;;;;19.87;11.00;;;5.20;99.90;;;;;;5047923;28;20048;-90
2021/12/28 07:13:37;;;;;;;20.27;10.47;;;5.20;99.90;;;;;;5046967;28;20087;-86
2021/12/28 07:16:03;;;;;;;18.43;10.63;;;6.00;99.90;;;;;;5063220;28;20059;-89
2021/12/28 07:18:28;;;;;;;20.00;9.57;;;5.30;99.90;;;;;;5066262;28;20441;-88
2021/12/28 07:20:58;;;;;;;18.07;10.20;;;5.30;99.90;;;;;;5085094;28;20128;-91
2021/12/28 07:23:27;;;;;;;15.88;9.98;;;5.30;99.90;;;;;;5043647;28;20058;-89
2021/12/28 07:25:54;;;;;;;13.67;9.93;;;5.30;99.90;;;;;;5041104;28;20449;-89
2021/12/28 07:28:21;;;;;;;9.93;8.23;;;5.30;99.90;;;;;;5057589;28;20282;-92
2021/12/28 07:30:47;;;;;;;17.90;8.32;;;5.30;99.90;;;;;;5057500;28;20088;-93
2021/12/28 07:33:14;;;;;;;11.85;8.27;;;6.40;99.90;;;;;;5057450;28;20040;-96
2021/12/28 07:35:40;;;;;;;12.65;9.00;;;6.10;99.90;;;;;;5057580;28;20110;-94
2021/12/28 07:38:05;;;;;;;13.93;8.73;;;5.50;99.90;;;;;;5074377;28;20045;-92
2021/12/28 07:40:31;;;;;;;15.47;8.77;;;5.30;99.90;;;;;;5073731;28;20043;-95
2021/12/28 07:42:57;;;;;;;13.73;8.10;;;5.50;99.90;;;;;;5057836;28;20098;-95
2021/12/28 07:45:23;;;;;;;12.60;7.33;;;5.30;99.90;;;;;;5057033;28;20048;-90
2021/12/28 07:47:52;;;;;;;17.30;8.23;;;5.30;99.90;;;;;;5063644;28;20115;-94
2021/12/28 07:50:18;;;;;;;12.57;8.10;;;5.30;99.90;;;;;;5080341;28;20048;-89
2021/12/28 07:52:45;;;;;;;14.00;7.75;;;5.50;99.90;;;;;;5072947;28;20542;-88
2021/12/28 07:55:13;;;;;;;15.50;8.52;;;5.60;99.90;;;;;;5083157;28;20139;-89
2021/12/28 07:57:39;;;;;;;13.52;7.20;;;5.70;99.90;;;;;;5043024;28;20052;-90
2021/12/28 08:00:08;;;;;;;13.18;6.82;;;5.30;99.90;;;;;;5042162;28;20510;-90
2021/12/28 08:02:34;;;;;;;19.40;7.30;;;5.30;99.90;;;;;;5075133;28;20052;-90
2021/12/28 08:05:03;;;;;;;15.83;7.80;;;5.40;99.90;;;;;;5063551;28;20576;-90
2021/12/28 08:07:29;;;;;;;11.23;7.03;;;5.40;99.90;;;;;;5039723;28;20120;-88
2021/12/28 08:09:54;;;;;;;8.17;6.53;;;6.00;99.90;;;;;;5042929;28;20538;-90
2021/12/28 08:12:23;;;;;;;9.40;6.50;;;5.60;99.90;;;;;;5045738;28;20044;-91
2021/12/28 08:14:48;;;;;;;12.38;7.13;;;5.30;99.90;;;;;;5062009;28;20051;-90
2021/12/28 08:17:14;;;;;;;11.43;6.40;;;5.30;99.90;;;;;;5043237;28;20052;-91
2021/12/28 08:19:40;;;;;;;12.83;6.37;;;5.70;99.90;;;;;;5045699;28;20127;-90
2021/12/28 08:22:05;;;;;;;11.23;6.63;;;5.30;99.90;;;;;;5079720;28;20041;-93
2021/12/28 08:24:33;;;;;;;14.30;6.43;;;6.10;99.90;;;;;;5046825;28;20087;-94
2021/12/28 08:26:59;;;;;;;12.13;6.78;;;5.30;99.90;;;;;;5061086;28;20441;-94
2021/12/28 08:29:25;;;;;;;11.95;6.50;;;5.30;99.90;;;;;;5043678;28;20036;-89
2021/12/28 08:31:51;;;;;;;13.27;7.07;;;5.20;99.90;;;;;;5044513;28;20052;-88
2021/12/28 08:34:17;;;;;;;8.83;6.33;;;5.20;99.90;;;;;;5061934;28;20037;-90
2021/12/28 08:36:43;;;;;;;12.87;6.20;;;5.20;99.90;;;;;;5046952;28;20045;-91
2021/12/28 08:39:08;;;;;;;9.63;6.30;;;5.20;99.90;;;;;;5079209;28;20047;-89
2021/12/28 08:41:34;;;;;;;17.10;6.17;;;5.20;99.90;;;;;;5074391;28;20056;-89
2021/12/28 08:44:00;;;;;;;11.03;6.43;;;5.50;99.90;;;;;;5059836;28;20059;-89
2021/12/28 08:46:26;;;;;;;8.97;5.43;;;5.20;99.90;;;;;;5060917;28;20055;-88
2021/12/28 08:48:52;;;;;;;7.87;5.10;;;5.20;99.90;;;;;;5059631;28;20079;-96
2021/12/28 08:51:18;;;;;;;12.43;4.88;;;5.20;99.90;;;;;;5046036;28;20036;-88
2021/12/28 08:53:43;;;;;;;10.50;6.03;;;5.20;99.90;;;;;;5069827;28;20139;-88
2021/12/28 08:56:09;;;;;;;9.73;4.93;;;5.30;99.90;;;;;;5055271;28;20082;-88
2021/12/28 08:58:35;;;;;;;16.33;6.70;;;5.30;99.90;;;;;;5055011;28;20126;-88
2021/12/28 09:01:01;;;;;;;11.70;6.43;;;5.30;99.90;;;;;;5055010;28;20044;-88
2021/12/28 09:03:27;;;;;;;8.37;6.00;;;5.30;99.90;;;;;;5071959;28;20063;-88
2021/12/28 09:05:53;;;;;;;7.73;5.70;;;5.30;99.90;;;;;;5088345;28;20127;-88
2021/12/28 09:08:19;;;;;;;11.47;5.37;;;6.20;99.90;;;;;;5071869;28;20074;-88
2021/12/28 09:10:46;;;;;;;15.90;5.85;;;5.40;99.90;;;;;;5054713;28;20047;-88
2021/12/28 09:13:14;;;;;;;11.18;5.15;;;5.40;99.90;;;;;;5090816;28;20056;-88
2021/12/28 09:15:41;;;;;;;16.42;6.18;;;6.00;99.90;;;;;;5088275;28;20052;-88
2021/12/28 09:18:07;;;;;;;12.18;5.93;;;5.50;99.90;;;;;;5088604;28;20047;-88
2021/12/28 09:20:32;;;;;;;9.87;4.63;;;5.50;99.90;;;;;;5072018;28;20124;-88
2021/12/28 09:22:58;;;;;;;14.87;5.33;;;5.60;99.90;;;;;;5071019;28;20048;-88
2021/12/28 09:25:24;;;;;;;8.33;5.43;;;5.60;99.90;;;;;;5071379;28;20052;-88
2021/12/28 09:27:51;;;;;;;12.33;4.63;;;5.70;99.90;;;;;;5088070;28;20048;-88
2021/12/28 09:30:17;;;;;;;8.18;4.32;;;5.80;99.90;;;;;;5088050;28;20517;-88
2021/12/28 09:32:43;;;;;;;10.67;5.60;;;6.60;99.90;;;;;;5067808;28;20037;-90
2021/12/28 09:35:10;;;;;;;16.25;5.03;;;5.80;99.90;;;;;;5072744;28;20040;-87
2021/12/28 09:37:37;;;;;;;11.43;4.65;;;5.80;99.90;;;;;;5058863;28;20115;-89
2021/12/28 09:40:07;;;;;;;9.63;5.35;;;5.40;99.90;;;;;;5073783;28;20055;-91
2021/12/28 09:42:33;;;;;;;11.07;5.05;;;5.50;99.90;;;;;;5082330;28;20036;-96
2021/12/28 09:44:59;;;;;;;16.40;5.20;;;5.90;99.90;;;;;;5058448;28;20037;-95
2021/12/28 09:47:25;;;;;;;10.37;5.03;;;5.90;99.90;;;;;;5060334;28;20283;-92
2021/12/28 09:49:51;;;;;;;9.90;5.80;;;6.00;99.90;;;;;;5078063;28;20127;-93
2021/12/28 09:52:17;;;;;;;11.13;4.63;;;6.00;99.90;;;;;;5062549;28;20563;-92
2021/12/28 09:54:44;;;;;;;8.05;5.25;;;6.00;99.90;;;;;;5078219;28;20095;-92
2021/12/28 09:57:17;;;;;;;11.63;4.55;;;6.00;99.90;;;;;;5060045;28;20071;-91
2021/12/28 09:59:44;;;;;;;9.55;5.10;;;6.10;99.90;;;;;;5076217;28;20033;-92
2021/12/28 10:02:10;;;;;;;10.05;4.80;;;7.10;99.90;;;;;;5079162;28;20037;-92
2021/12/28 10:04:50;;;;;;;6.90;4.40;;;6.10;99.90;;;;;;5061381;28;20124;-92
2021/12/28 10:07:22;;;;;;;6.20;3.92;;;6.60;99.90;;;;;;5061192;28;20040;-91
2021/12/28 10:09:48;;;;;;;10.27;4.35;;;6.10;99.90;;;;;;5075863;28;20499;-91
2021/12/28 10:12:36;;;;;;;6.85;4.30;;;6.20;99.90;;;;;;5071057;28;20051;-89
2021/12/28 10:15:04;;;;;;;;;;;6.10;99.90;;;;;;5110027;28;20029;-92
2021/12/28 10:17:32;;;;;;;12.18;4.78;;;6.10;99.90;;;;;;5060247;28;19920;-90
2021/12/28 10:20:00;;;;;;;13.77;4.78;;;6.20;99.90;;;;;;5063168;28;20062;-93
2021/12/28 10:22:31;;;;;;;10.00;5.07;;;6.20;99.90;;;;;;5062659;28;20056;-92
2021/12/28 10:25:19;;;;;;;6.57;4.25;;;6.20;99.90;;;;;;5061867;28;20181;-92
2021/12/28 10:27:48;;;;;;;15.18;5.38;;;6.20;99.90;;;;;;5038137;28;20057;-92
2021/12/28 10:30:23;;;;;;;7.40;4.18;;;6.20;99.90;;;;;;5054412;28;20055;-92
2021/12/28 10:32:55;;;;;;;12.40;4.25;;;6.20;99.90;;;;;;5071755;28;20048;-93
2021/12/28 10:35:24;;;;;;;6.38;4.18;;;6.20;99.90;;;;;;5060294;28;20109;-91
2021/12/28 10:37:58;;;;;;;8.10;4.43;;;6.20;99.90;;;;;;5063773;28;20068;-92
2021/12/28 10:40:34;;;;;;;9.75;4.20;;;7.10;99.90;;;;;;5080959;28;20124;-90
2021/12/28 10:43:05;;;;;;;11.15;4.47;;;6.20;99.90;;;;;;5104144;28;20032;-91
2021/12/28 10:45:40;;;;;;;8.00;5.40;;;6.30;99.90;;;;;;5081848;28;20556;-90
2021/12/28 10:48:13;;;;;;;10.75;5.90;;;6.20;99.90;;;;;;5084557;28;20036;-91
2021/12/28 10:50:55;;;;;;;11.45;4.95;;;6.20;99.90;;;;;;5079333;28;20045;-89
2021/12/28 10:53:26;;;;;;;13.98;5.40;;;6.20;99.90;;;;;;5064751;28;20046;-91
2021/12/28 10:55:58;;;;;;;9.35;5.13;;;6.20;99.90;;;;;;5063968;28;20075;-93
2021/12/28 10:58:46;;;;;;;11.38;5.38;;;6.30;99.90;;;;;;5043162;28;20044;-91
2021/12/28 11:01:20;;;;;;;9.57;4.95;;;6.80;99.90;;;;;;5097035;28;20044;-96
2021/12/28 11:03:59;;;;;;;12.95;5.32;;;6.30;99.90;;;;;;5093764;28;20068;-91
2021/12/28 11:06:28;;;;;;;8.38;5.30;;;6.30;99.90;;;;;;5082540;28;20131;-93
2021/12/28 11:09:00;;;;;;;15.13;4.80;;;6.30;99.90;;;;;;5067601;28;20079;-92
2021/12/28 11:11:26;;;;;;;9.00;4.88;;;6.30;99.90;;;;;;5084621;28;20592;-91
2021/12/28 11:13:58;;;;;;;16.83;4.87;;;6.30;99.90;;;;;;5063601;28;20040;-89
2021/12/28 11:16:29;;;;;;;11.77;6.03;;;6.30;99.90;;;;;;5104622;28;20068;-89
2021/12/28 11:18:58;;;;;;;7.22;4.60;;;6.40;99.90;;;;;;5081277;28;20106;-91
2021/12/28 11:21:29;;;;;;;10.57;5.68;;;6.40;99.90;;;;;;5080669;28;20055;-90
2021/12/28 11:24:04;;;;;;;13.48;5.18;;;6.40;99.90;;;;;;5078867;28;20048;-89
2021/12/28 11:26:34;;;;;;;6.32;5.07;;;6.40;99.90;;;;;;5073002;28;20052;-92
2021/12/28 11:29:05;;;;;;;6.50;5.18;;;6.70;99.90;;;;;;5075110;28;20044;-88
2021/12/28 11:31:40;;;;;;;11.68;5.88;;;6.50;99.90;;;;;;5079548;28;20080;-90
2021/12/28 11:34:11;;;;;;;9.00;5.28;;;6.90;99.90;;;;;;5074180;28;20074;-90
2021/12/28 11:36:43;;;;;;;16.48;6.35;;;6.50;99.90;;;;;;5040187;28;20056;-90
2021/12/28 11:39:15;;;;;;;11.82;5.15;;;6.50;99.90;;;;;;5056032;28;20049;-90
2021/12/28 11:41:42;;;;;;;10.73;5.60;;;6.50;99.90;;;;;;5073455;28;20475;-90
2021/12/28 11:44:08;;;;;;;;;;;6.50;99.90;;;;;;5073335;28;20490;-90
2021/12/28 11:46:34;;;;;;;12.65;5.55;;;6.50;99.90;;;;;;5072489;28;19935;-90
2021/12/28 11:49:00;;;;;;;11.07;5.28;;;6.60;99.90;;;;;;5072519;28;20478;-90
2021/12/28 11:51:27;;;;;;;11.90;5.67;;;6.60;99.90;;;;;;5072801;28;20041;-90
2021/12/28 11:53:54;;;;;;;10.98;6.45;;;6.50;99.90;;;;;;5075194;28;20049;-90
2021/12/28 11:56:27;;;;;;;10.55;5.60;;;6.60;99.90;;;;;;5071958;28;20044;-88
2021/12/28 11:58:58;;;;;;;8.00;4.68;;;6.60;99.90;;;;;;5076047;28;20150;-90
2021/12/28 12:01:57;;;;;;;13.48;6.25;;;6.60;99.90;;;;;;5062205;28;20043;-91
2021/12/28 12:04:34;;;;;;;8.50;5.38;;;6.60;99.90;;;;;;5076503;28;20105;-90
2021/12/28 12:07:05;;;;;;;10.60;5.25;;;6.60;99.90;;;;;;5075353;28;20048;-90
2021/12/28 12:09:33;;;;;;;6.70;4.78;;;6.60;99.90;;;;;;5079050;28;20076;-90
2021/12/28 12:12:08;;;;;;;10.45;5.20;;;6.60;99.90;;;;;;5061832;28;20072;-88
2021/12/28 12:14:52;;;;;;;13.55;5.93;;;6.70;99.90;;;;;;5093634;28;20052;-89
2021/12/28 12:17:39;;;;;;;13.80;5.55;;;6.70;99.90;;;;;;5100069;28;20109;-90
2021/12/28 12:20:15;;;;;;;6.10;5.05;;;6.90;99.90;;;;;;5075851;28;20040;-90
2021/12/28 12:22:57;;;;;;;7.97;5.53;;;6.80;99.90;;;;;;5079310;28;20071;-90
2021/12/28 12:25:29;;;;;;;8.45;5.18;;;6.70;99.90;;;;;;5071716;28;20044;-93
2021/12/28 12:28:01;;;;;;;8.90;5.28;;;6.80;99.90;;;;;;5043468;28;20441;-92
2021/12/28 12:30:27;;;;;;;7.60;5.65;;;6.80;99.90;;;;;;5078668;28;20101;-91
2021/12/28 12:33:02;;;;;;;11.30;5.85;;;6.80;99.90;;;;;;5045386;28;20102;-88
2021/12/28 12:35:38;;;;;;;13.13;5.90;;;6.80;99.90;;;;;;5070709;28;20071;-89
2021/12/28 12:38:24;;;;;;;11.05;5.68;;;6.80;99.90;;;;;;5082888;28;20045;-90
2021/12/28 12:40:58;;;;;;;9.48;5.97;;;6.80;99.90;;;;;;5102981;28;20040;-89
2021/12/28 12:43:27;;;;;;;7.57;5.88;;;6.80;99.90;;;;;;5078197;28;20094;-91
2021/12/28 12:45:52;;;;;;;6.65;5.30;;;7.50;99.90;;;;;;5079415;28;20083;-89
2021/12/28 12:48:36;;;;;;;10.20;5.83;;;6.80;99.90;;;;;;5040952;28;20072;-89
2021/12/28 12:51:23;;;;;;;8.27;5.75;;;7.20;99.90;;;;;;5096232;28;20398;-90
2021/12/28 12:54:06;;;;;;;8.00;6.03;;;6.80;99.90;;;;;;5063089;28;20044;-90